Astoria, OR

10:13 PM PDT on April 17, 2015 (GMT -0700)
The Slope of South | | Change Station
CLOSE
Current Station
Personal Weather Station
Location: Astoria, OR
Elevation: 213 ft
Nearby Weather Stations

Elev 213 ft 46.18 °N, 123.84 °W | Updated 6 minutes ago

Clear
Clear
49.1 °F
Feels Like 48 °F
N
3.2
Wind Variable Wind from SSW

Today
High -- | Low -- °F
--% Chance of Precip.
Yesterday
High -- | Low -- °F
Precip. -- in
6:25 AM 8:05 PM
Waning Crescent, 0% visible
Pressure 30.31 in
Visibility 10.0 miles
Clouds Overcast 1300 ft
Windchill 48 °F
Dew Point 44 °F
Humidity 83%
Rainfall 0.00 in
Snow Depth Not available.
UV 0 out of 12
Pollen 9.80 out of 12
Air Quality Not available.
Flu Activity Regional
METAR KAST 180455Z AUTO 32012KT 10SM OVC013 11/08 A3031 RMK AO2 SLP264 T01060078

More Conditions Fewer Conditions

Pressure 30.31 in
Visibility 10.0 miles
Clouds Overcast 1300 ft
Windchill 48 °F
Dew Point 44 °F
Humidity 83%
Rainfall 0.00 in
Snow Depth Not available.
UV 0 out of 12
Pollen 9.80 out of 12
Air Quality Not available.
Flu Activity Regional
METAR KAST 180455Z AUTO 32012KT 10SM OVC013 11/08 A3031 RMK AO2 SLP264 T01060078

More Conditions Fewer Conditions

10-Day Weather Forecast

Almanac

Astronomy

Apr. 17, 2015 Rise Set
Actual Time
Civil Twilight
Nautical Twilight
Astronomical Twilight
Moon
Length of Visible Light
Length of Day
Tomorrow will be .
, % of the Moon is Illuminated

Today's Extremes

State Highs State Lows

Community

WunderPhotos

Upload Photos

1,814,341 photos uploaded!

WunderBlogs® & News

Nearby

Air Quality

  Air Quality AQ Index Pollutant
Not available.

Snow Depth

Station Depth Elevation

Earthquake Activity

City Distance Mag. Time & Date
Minimum magnitude displayed is 2.5.

Coastal Water Temperatures

Place Temperature

Stations

Nearby Weather Stations

Station Location Temp. Windchill Dew Point Humidity Wind Precip. Elev Updated Type